Time;durP1;ratioP1;P1;durP2;ratioP2;P2;SDS_P1;SDS_P2;PMS_P1;PMS_P2;Temp;Humidity;BMP_temperature;BMP_pressure;BME280_temperature;BME280_humidity;BME280_pressure;Samples;Min_cycle;Max_cycle;Signal;HPM_P1;HPM_P2
2022/04/02 00:22:31;;;;;;;7.30;5.90;;;;;;;;;;4233374;29;20191;-68
2022/04/02 00:24:57;;;;;;;12.70;6.28;;;;;;;;;;4111100;34;20131;-68
2022/04/02 00:27:23;;;;;;;12.68;5.62;;;;;;;;;;4111003;34;20123;-68
2022/04/02 00:29:49;;;;;;;14.38;5.00;;;;;;;;;;4111039;34;20115;-66
2022/04/02 00:32:15;;;;;;;14.93;5.85;;;;;;;;;;4110664;34;20135;-66
2022/04/02 00:34:41;;;;;;;14.35;6.22;;;;;;;;;;4110890;34;20214;-71
2022/04/02 00:37:07;;;;;;;9.77;5.18;;;;;;;;;;4098600;34;20968;-71
2022/04/02 00:39:33;;;;;;;12.98;5.28;;;;;;;;;;4098559;34;20135;-67
2022/04/02 00:41:59;;;;;;;10.05;5.12;;;;;;;;;;4110872;34;20124;-67
2022/04/02 00:44:26;;;;;;;14.07;5.57;;;;;;;;;;4110827;34;20127;-71
2022/04/02 00:46:53;;;;;;;12.82;5.28;;;;;;;;;;4098368;34;20212;-69
2022/04/02 00:49:20;;;;;;;14.82;4.97;;;;;;;;;;4110761;34;20104;-69
2022/04/02 00:51:46;;;;;;;23.08;6.03;;;;;;;;;;4098492;34;20549;-73
2022/04/02 00:54:19;;;;;;;20.35;6.20;;;;;;;;;;4098321;34;20119;-72
2022/04/02 00:56:47;;;;;;;12.50;5.07;;;;;;;;;;4110624;34;20115;-73
2022/04/02 00:59:13;;;;;;;12.63;5.30;;;;;;;;;;4111019;34;20217;-73
2022/04/02 01:01:39;;;;;;;9.82;4.53;;;;;;;;;;4110640;34;20116;-73
2022/04/02 01:04:06;;;;;;;14.27;5.25;;;;;;;;;;4098611;34;20123;-73
2022/04/02 01:06:33;;;;;;;9.27;4.75;;;;;;;;;;4110616;34;20135;-73
2022/04/02 01:09:00;;;;;;;22.70;5.80;;;;;;;;;;4098435;34;20139;-73
2022/04/02 01:11:42;;;;;;;17.77;5.37;;;;;;;;;;4110888;34;20124;-73
2022/04/02 01:14:08;;;;;;;9.60;4.90;;;;;;;;;;4110613;34;20120;-73
2022/04/02 01:16:35;;;;;;;14.93;5.47;;;;;;;;;;4110635;34;20225;-72
2022/04/02 01:19:01;;;;;;;9.07;4.75;;;;;;;;;;4110878;34;20104;-72
2022/04/02 01:21:28;;;;;;;12.95;5.22;;;;;;;;;;4110448;34;20443;-71
2022/04/02 01:23:55;;;;;;;11.02;4.85;;;;;;;;;;4098161;34;20208;-72
2022/04/02 01:26:22;;;;;;;19.70;5.22;;;;;;;;;;4110527;34;20114;-73
2022/04/02 01:28:57;;;;;;;13.13;6.03;;;;;;;;;;4098270;34;20096;-73
2022/04/02 01:31:24;;;;;;;11.00;5.55;;;;;;;;;;4110481;34;20124;-73
2022/04/02 01:33:51;;;;;;;14.87;5.12;;;;;;;;;;4097834;34;20537;-73
2022/04/02 01:36:17;;;;;;;11.30;5.05;;;;;;;;;;4110484;34;20185;-72
2022/04/02 01:38:44;;;;;;;14.98;5.70;;;;;;;;;;4098167;34;20146;-73
2022/04/02 01:41:10;;;;;;;17.60;6.80;;;;;;;;;;4110729;34;20107;-72
2022/04/02 01:43:36;;;;;;;12.52;5.45;;;;;;;;;;4110468;34;20112;-73
2022/04/02 01:46:03;;;;;;;21.80;5.43;;;;;;;;;;4110299;34;20136;-73
2022/04/02 01:48:30;;;;;;;16.40;5.78;;;;;;;;;;4110421;34;20104;-71
2022/04/02 01:50:56;;;;;;;15.27;5.40;;;;;;;;;;4110368;34;20119;-71
2022/04/02 01:53:23;;;;;;;17.30;5.78;;;;;;;;;;4098312;34;20123;-71
2022/04/02 01:55:50;;;;;;;21.90;6.18;;;;;;;;;;4110244;34;20434;-70
2022/04/02 01:58:17;;;;;;;13.48;5.45;;;;;;;;;;4097843;34;20118;-71
2022/04/02 02:00:43;;;;;;;10.73;4.97;;;;;;;;;;4098014;34;20123;-71
2022/04/02 02:03:10;;;;;;;16.65;5.12;;;;;;;;;;4097938;34;20124;-71
2022/04/02 02:05:36;;;;;;;9.32;4.45;;;;;;;;;;4109571;34;20613;-70
2022/04/02 02:08:03;;;;;;;13.98;5.18;;;;;;;;;;4110375;34;20119;-71
2022/04/02 02:10:29;;;;;;;15.55;4.87;;;;;;;;;;4110309;34;20129;-71
2022/04/02 02:12:55;;;;;;;18.15;5.00;;;;;;;;;;4097722;34;20143;-70
2022/04/02 02:15:22;;;;;;;12.48;5.12;;;;;;;;;;4110336;34;20116;-71
2022/04/02 02:17:49;;;;;;;14.50;5.20;;;;;;;;;;4097523;34;20217;-71
2022/04/02 02:20:16;;;;;;;17.50;5.80;;;;;;;;;;4097734;34;20103;-70
2022/04/02 02:22:42;;;;;;;19.60;5.75;;;;;;;;;;4110162;34;20103;-70
2022/04/02 02:25:10;;;;;;;21.85;6.85;;;;;;;;;;4097639;34;20132;-70
2022/04/02 02:27:36;;;;;;;15.50;4.70;;;;;;;;;;4110014;34;20096;-70
2022/04/02 02:30:04;;;;;;;15.10;5.18;;;;;;;;;;4097828;34;20539;-70
2022/04/02 02:32:36;;;;;;;12.02;5.05;;;;;;;;;;4110039;34;20120;-70
2022/04/02 02:37:49;;;;;;;18.87;5.68;;;;;;;;;;4097426;34;20096;-71
2022/04/02 02:40:15;;;;;;;15.30;5.30;;;;;;;;;;4110149;34;20163;-71
2022/04/02 02:42:41;;;;;;;15.65;5.87;;;;;;;;;;4109784;34;20606;-71
2022/04/02 02:45:08;;;;;;;16.70;5.32;;;;;;;;;;4110067;34;20112;-71
2022/04/02 02:47:34;;;;;;;14.20;5.35;;;;;;;;;;4109804;34;20481;-71
2022/04/02 02:50:00;;;;;;;13.38;5.85;;;;;;;;;;4109851;34;20135;-68
2022/04/02 02:52:28;;;;;;;20.58;5.55;;;;;;;;;;4109744;34;20144;-68
2022/04/02 02:54:54;;;;;;;23.77;6.10;;;;;;;;;;4110020;34;20144;-69
2022/04/02 02:57:20;;;;;;;17.15;5.68;;;;;;;;;;4109768;34;20140;-69
2022/04/02 02:59:45;;;;;;;23.02;6.80;;;;;;;;;;4109991;34;20552;-68
2022/04/02 03:02:11;;;;;;;23.08;6.15;;;;;;;;;;4109933;34;20269;-69
2022/04/02 03:04:38;;;;;;;19.55;5.22;;;;;;;;;;4097372;34;20128;-69
2022/04/02 03:07:04;;;;;;;24.35;5.70;;;;;;;;;;4109903;34;20116;-69
2022/04/02 03:09:30;;;;;;;19.70;6.62;;;;;;;;;;4109634;34;20118;-71
2022/04/02 03:11:56;;;;;;;18.27;6.72;;;;;;;;;;4109490;34;20092;-67
2022/04/02 03:14:22;;;;;;;23.25;5.35;;;;;;;;;;4109567;34;20122;-64
2022/04/02 03:16:48;;;;;;;19.27;5.57;;;;;;;;;;4097012;34;20279;-68
2022/04/02 03:19:14;;;;;;;18.17;6.07;;;;;;;;;;4109758;34;20547;-64
2022/04/02 03:21:40;;;;;;;17.98;5.47;;;;;;;;;;4097004;34;20254;-66
2022/04/02 03:24:06;;;;;;;16.33;5.47;;;;;;;;;;4109727;34;20135;-71
2022/04/02 03:26:34;;;;;;;16.15;5.97;;;;;;;;;;4109363;34;20135;-70
2022/04/02 03:29:00;;;;;;;19.85;5.43;;;;;;;;;;4109459;34;20100;-70
2022/04/02 03:31:26;;;;;;;25.90;5.32;;;;;;;;;;4109421;34;20115;-70
2022/04/02 03:33:52;;;;;;;21.25;6.18;;;;;;;;;;4096959;34;20126;-70
2022/04/02 03:36:18;;;;;;;19.70;5.37;;;;;;;;;;4109511;34;20128;-70
2022/04/02 03:38:44;;;;;;;17.00;4.90;;;;;;;;;;4109556;34;20104;-70
2022/04/02 03:41:13;;;;;;;20.58;5.93;;;;;;;;;;4086235;34;20096;-69
2022/04/02 03:43:39;;;;;;;21.45;5.32;;;;;;;;;;4097323;34;20193;-69
2022/04/02 03:48:49;;;;;;;16.10;5.95;;;;;;;;;;4109575;34;20100;-69
2022/04/02 03:51:15;;;;;;;16.10;6.80;;;;;;;;;;4097228;34;20163;-69
2022/04/02 03:53:41;;;;;;;27.52;5.87;;;;;;;;;;4096851;34;20448;-69
2022/04/02 03:56:10;;;;;;;18.05;6.62;;;;;;;;;;4109199;34;20455;-68
2022/04/02 03:58:36;;;;;;;16.52;5.15;;;;;;;;;;4096711;34;20122;-69
2022/04/02 04:01:03;;;;;;;25.70;6.30;;;;;;;;;;4085959;34;20147;-68
2022/04/02 04:03:29;;;;;;;18.33;5.75;;;;;;;;;;4096656;34;20127;-69
2022/04/02 04:05:55;;;;;;;18.90;5.97;;;;;;;;;;4096946;34;20164;-65
2022/04/02 04:08:21;;;;;;;20.17;6.18;;;;;;;;;;4109224;34;20089;-67
2022/04/02 04:10:47;;;;;;;16.85;6.18;;;;;;;;;;4108965;34;20104;-66
2022/04/02 04:13:12;;;;;;;13.30;5.00;;;;;;;;;;4109031;34;20216;-67
2022/04/02 04:15:38;;;;;;;20.25;5.78;;;;;;;;;;4109186;34;20497;-65
2022/04/02 04:18:04;;;;;;;22.23;6.68;;;;;;;;;;4108934;34;20136;-65
2022/04/02 04:20:32;;;;;;;24.10;6.65;;;;;;;;;;4109177;34;20126;-63
2022/04/02 04:22:58;;;;;;;23.90;5.82;;;;;;;;;;4109072;34;20108;-66
2022/04/02 04:25:24;;;;;;;21.23;5.87;;;;;;;;;;4109067;34;20123;-66
2022/04/02 04:27:50;;;;;;;17.85;5.72;;;;;;;;;;4108782;34;20126;-67
2022/04/02 04:30:16;;;;;;;26.23;6.55;;;;;;;;;;4110969;34;20791;-66
2022/04/02 04:32:42;;;;;;;20.95;6.62;;;;;;;;;;4110873;34;20203;-66
2022/04/02 04:35:08;;;;;;;21.73;6.25;;;;;;;;;;4110803;34;20111;-66
2022/04/02 04:37:35;;;;;;;27.27;6.22;;;;;;;;;;4098403;34;20469;-68
2022/04/02 04:40:02;;;;;;;20.92;6.45;;;;;;;;;;4098540;34;20120;-65
2022/04/02 04:42:28;;;;;;;25.58;5.60;;;;;;;;;;4098615;34;20509;-72
2022/04/02 04:44:54;;;;;;;11.07;6.25;;;;;;;;;;4110870;34;20114;-68
2022/04/02 04:47:20;;;;;;;21.52;5.70;;;;;;;;;;4098430;34;20203;-66
2022/04/02 04:49:46;;;;;;;22.27;6.40;;;;;;;;;;4111035;34;20547;-65
2022/04/02 04:52:12;;;;;;;20.98;6.10;;;;;;;;;;4098601;34;20568;-67
2022/04/02 04:54:38;;;;;;;16.92;5.97;;;;;;;;;;4110953;34;20286;-68
2022/04/02 04:57:04;;;;;;;23.00;5.75;;;;;;;;;;4098502;34;20206;-68
2022/04/02 04:59:30;;;;;;;22.48;5.93;;;;;;;;;;4098249;34;20502;-74
2022/04/02 05:01:56;;;;;;;17.58;5.30;;;;;;;;;;4087291;34;20108;-66
2022/04/02 05:04:22;;;;;;;21.12;6.45;;;;;;;;;;4098210;34;20085;-66
2022/04/02 05:06:49;;;;;;;18.73;7.10;;;;;;;;;;4098332;34;20128;-67
2022/04/02 05:09:15;;;;;;;21.52;5.68;;;;;;;;;;4110868;34;20113;-67
2022/04/02 05:11:41;;;;;;;16.23;5.43;;;;;;;;;;4110588;34;20119;-66
2022/04/02 05:14:08;;;;;;;23.90;7.05;;;;;;;;;;4098576;34;20112;-66
2022/04/02 05:16:35;;;;;;;16.33;5.80;;;;;;;;;;4098116;34;20127;-65
2022/04/02 05:19:02;;;;;;;23.50;6.22;;;;;;;;;;4098237;34;20131;-64
2022/04/02 05:21:28;;;;;;;23.52;5.90;;;;;;;;;;4110538;34;20201;-64
2022/04/02 05:23:54;;;;;;;8.70;3.80;;;;;;;;;;4098132;34;20203;-62
2022/04/02 05:26:20;;;;;;;27.87;6.30;;;;;;;;;;4110454;34;20127;-63
2022/04/02 05:28:46;;;;;;;20.00;5.95;;;;;;;;;;4098045;34;20104;-63
2022/04/02 05:31:12;;;;;;;25.60;5.60;;;;;;;;;;4110601;34;20142;-68
2022/04/02 05:33:38;;;;;;;6.43;2.10;;;;;;;;;;4098211;34;20576;-67
2022/04/02 05:36:05;;;;;;;5.32;1.50;;;;;;;;;;4086754;35;20101;-64
2022/04/02 05:38:31;;;;;;;23.80;6.22;;;;;;;;;;4096932;35;20474;-67
2022/04/02 05:40:57;;;;;;;22.48;5.90;;;;;;;;;;4083928;35;20123;-66
2022/04/02 05:43:23;;;;;;;21.50;5.65;;;;;;;;;;4084793;35;20155;-66
2022/04/02 05:45:49;;;;;;;26.95;6.82;;;;;;;;;;4097087;35;20113;-66
2022/04/02 05:48:17;;;;;;;20.35;5.53;;;;;;;;;;4097340;35;20135;-66
2022/04/02 05:50:44;;;;;;;20.35;5.45;;;;;;;;;;4084736;35;20445;-66
2022/04/02 05:53:10;;;;;;;29.95;5.93;;;;;;;;;;4096946;35;20124;-66
2022/04/02 05:55:36;;;;;;;21.77;5.40;;;;;;;;;;4096983;35;20202;-66
2022/04/02 05:58:02;;;;;;;24.92;6.47;;;;;;;;;;4096982;35;20188;-67
2022/04/02 06:00:28;;;;;;;17.85;5.70;;;;;;;;;;4097090;35;20213;-66
2022/04/02 06:02:54;;;;;;;26.58;6.00;;;;;;;;;;4084368;34;20551;-65
2022/04/02 06:05:20;;;;;;;20.75;5.78;;;;;;;;;;4096458;35;20104;-65
2022/04/02 06:07:47;;;;;;;20.17;6.53;;;;;;;;;;4097517;34;20180;-65
2022/04/02 06:10:13;;;;;;;20.42;6.40;;;;;;;;;;4086300;35;20100;-65
2022/04/02 06:12:40;;;;;;;22.73;6.12;;;;;;;;;;4074410;35;20112;-67
2022/04/02 06:15:09;;;;;;;25.02;8.05;;;;;;;;;;4062985;35;20125;-68
2022/04/02 06:17:36;;;;;;;23.77;6.28;;;;;;;;;;4074341;35;20120;-68
2022/04/02 06:20:02;;;;;;;22.48;6.07;;;;;;;;;;4084763;35;20124;-69
2022/04/02 06:22:28;;;;;;;24.15;7.07;;;;;;;;;;4097242;35;20462;-69
2022/04/02 06:24:54;;;;;;;26.60;6.82;;;;;;;;;;4096701;34;20204;-69
2022/04/02 06:27:20;;;;;;;23.12;5.78;;;;;;;;;;4110783;34;20317;-68
2022/04/02 06:29:46;;;;;;;16.95;5.90;;;;;;;;;;4109884;34;20553;-68
2022/04/02 06:32:12;;;;;;;24.25;6.07;;;;;;;;;;4110138;34;20184;-69
2022/04/02 06:34:38;;;;;;;27.35;6.62;;;;;;;;;;4097382;34;20217;-68
2022/04/02 06:37:04;;;;;;;19.50;5.72;;;;;;;;;;4096943;35;20112;-67
2022/04/02 06:39:30;;;;;;;20.17;4.95;;;;;;;;;;4106721;34;20100;-69
2022/04/02 06:41:57;;;;;;;22.17;6.25;;;;;;;;;;4101583;34;20104;-68
2022/04/02 06:44:23;;;;;;;15.75;5.78;;;;;;;;;;4105219;34;20533;-69
2022/04/02 06:46:49;;;;;;;23.98;5.55;;;;;;;;;;4085719;34;20207;-69
2022/04/02 06:49:15;;;;;;;20.98;6.43;;;;;;;;;;4109431;34;20106;-70
2022/04/02 06:51:41;;;;;;;20.05;5.90;;;;;;;;;;4107502;34;20115;-69
2022/04/02 06:54:07;;;;;;;18.35;7.03;;;;;;;;;;4095512;34;20195;-69
2022/04/02 06:56:33;;;;;;;21.77;6.50;;;;;;;;;;4096316;35;20201;-69
2022/04/02 06:58:59;;;;;;;22.90;6.93;;;;;;;;;;4083778;35;20548;-67
2022/04/02 07:01:25;;;;;;;18.35;5.40;;;;;;;;;;4096341;35;20152;-68
2022/04/02 07:03:52;;;;;;;15.02;5.53;;;;;;;;;;4094810;35;20154;-68
2022/04/02 07:06:18;;;;;;;23.40;6.10;;;;;;;;;;4096053;35;20093;-68
2022/04/02 07:08:44;;;;;;;21.05;6.85;;;;;;;;;;4102132;34;20100;-68
2022/04/02 07:11:10;;;;;;;20.33;5.62;;;;;;;;;;4082938;35;20097;-68
2022/04/02 07:13:36;;;;;;;16.85;5.43;;;;;;;;;;4092742;34;20124;-67
2022/04/02 07:16:02;;;;;;;21.10;6.07;;;;;;;;;;4109427;34;20134;-67
2022/04/02 07:18:28;;;;;;;23.65;5.65;;;;;;;;;;4107529;34;20135;-67
2022/04/02 07:20:54;;;;;;;34.15;7.43;;;;;;;;;;4096687;34;20115;-66
2022/04/02 07:23:21;;;;;;;17.62;6.25;;;;;;;;;;4108925;34;20164;-67
2022/04/02 07:25:50;;;;;;;9.55;4.62;;;;;;;;;;4096818;34;20608;-68
2022/04/02 07:28:16;;;;;;;16.58;5.15;;;;;;;;;;4107749;34;20501;-67
2022/04/02 07:30:42;;;;;;;2.47;2.20;;;;;;;;;;4108987;34;20107;-67
2022/04/02 07:33:08;;;;;;;4.35;2.33;;;;;;;;;;4108830;34;20120;-66
2022/04/02 07:35:43;;;;;;;9.80;3.65;;;;;;;;;;4108531;34;20119;-66
2022/04/02 07:38:16;;;;;;;9.23;3.08;;;;;;;;;;4086167;34;20114;-65
2022/04/02 07:41:06;;;;;;;21.10;6.60;;;;;;;;;;4109009;34;20104;-67
2022/04/02 07:43:51;;;;;;;7.87;2.53;;;;;;;;;;4108787;34;20479;-67
2022/04/02 07:46:22;;;;;;;21.08;4.40;;;;;;;;;;4107493;34;20124;-67
2022/04/02 07:48:48;;;;;;;8.30;2.92;;;;;;;;;;4111729;34;20127;-66
2022/04/02 07:51:16;;;;;;;2.22;2.05;;;;;;;;;;4108741;34;20529;-68
2022/04/02 07:53:45;;;;;;;12.02;4.18;;;;;;;;;;4095062;34;20230;-66
2022/04/02 07:56:14;;;;;;;14.73;6.07;;;;;;;;;;4095688;35;20237;-67
2022/04/02 07:58:45;;;;;;;16.60;4.47;;;;;;;;;;4094447;35;20199;-70
2022/04/02 08:01:13;;;;;;;8.07;3.42;;;;;;;;;;4081918;35;20124;-68
2022/04/02 08:03:43;;;;;;;16.17;4.53;;;;;;;;;;4090114;35;20151;-68
2022/04/02 08:06:09;;;;;;;23.52;5.87;;;;;;;;;;4057431;35;20136;-67
2022/04/02 08:08:36;;;;;;;19.75;5.12;;;;;;;;;;4084058;34;20548;-67
2022/04/02 08:11:02;;;;;;;19.30;5.32;;;;;;;;;;4092383;34;20210;-67
2022/04/02 08:13:29;;;;;;;16.33;4.95;;;;;;;;;;4104618;34;20132;-67
2022/04/02 08:15:56;;;;;;;19.05;4.55;;;;;;;;;;4105286;34;20129;-67
2022/04/02 08:18:28;;;;;;;22.80;4.97;;;;;;;;;;4092379;34;20101;-67
2022/04/02 08:20:55;;;;;;;13.93;4.70;;;;;;;;;;4105635;34;20309;-66
2022/04/02 08:23:21;;;;;;;3.22;2.25;;;;;;;;;;4093546;34;20469;-66
2022/04/02 08:26:04;;;;;;;3.22;2.08;;;;;;;;;;4106466;34;20489;-66
2022/04/02 08:28:57;;;;;;;16.85;4.57;;;;;;;;;;4094421;34;20140;-66
2022/04/02 08:31:46;;;;;;;23.62;3.90;;;;;;;;;;4101258;34;20127;-66
2022/04/02 08:34:37;;;;;;;3.87;2.40;;;;;;;;;;4108957;34;20140;-68
2022/04/02 08:37:15;;;;;;;1.20;1.20;;;;;;;;;;4100288;34;20533;-67
2022/04/02 08:40:01;;;;;;;22.95;6.65;;;;;;;;;;4084928;35;20132;-67
2022/04/02 08:42:46;;;;;;;18.15;4.72;;;;;;;;;;4095977;35;20209;-68
2022/04/02 08:45:14;;;;;;;10.10;4.00;;;;;;;;;;4095882;35;20124;-68
2022/04/02 08:47:46;;;;;;;9.45;2.78;;;;;;;;;;4096143;35;20128;-66
2022/04/02 08:50:16;;;;;;;17.73;4.57;;;;;;;;;;4095924;35;20121;-68
2022/04/02 08:52:52;;;;;;;11.82;3.75;;;;;;;;;;4096194;34;20132;-67
2022/04/02 08:55:20;;;;;;;14.38;3.33;;;;;;;;;;4096969;35;20128;-66
2022/04/02 08:57:52;;;;;;;5.85;2.15;;;;;;;;;;4097800;34;20112;-67
2022/04/02 09:00:27;;;;;;;15.15;6.15;;;;;;;;;;4110325;34;20503;-67
2022/04/02 09:03:21;;;;;;;12.35;3.40;;;;;;;;;;4110277;34;20128;-66
2022/04/02 09:05:54;;;;;;;22.73;5.12;;;;;;;;;;4109261;34;20128;-66
2022/04/02 09:08:49;;;;;;;16.10;3.92;;;;;;;;;;4110365;34;20100;-67
2022/04/02 09:12:00;;;;;;;18.97;4.80;;;;;;;;;;4110072;34;20238;-66
2022/04/02 09:14:55;;;;;;;13.70;4.10;;;;;;;;;;4073728;35;20185;-67
2022/04/02 09:18:06;;;;;;;16.30;3.78;;;;;;;;;;4082290;35;20112;-69
2022/04/02 09:20:59;;;;;;;5.47;2.28;;;;;;;;;;4055471;35;20140;-70
2022/04/02 09:24:15;;;;;;;23.42;5.32;;;;;;;;;;4079810;34;20758;-67
2022/04/02 09:27:21;;;;;;;26.87;6.50;;;;;;;;;;4098041;34;20124;-67
2022/04/02 09:30:09;;;;;;;17.98;5.62;;;;;;;;;;4110244;34;20123;-67
2022/04/02 09:32:55;;;;;;;25.70;7.30;;;;;;;;;;4108637;34;20112;-66
2022/04/02 09:35:37;;;;;;;20.88;5.45;;;;;;;;;;4097674;34;20233;-67
2022/04/02 09:38:37;;;;;;;20.67;8.07;;;;;;;;;;4086992;34;20120;-68
2022/04/02 09:41:57;;;;;;;20.63;6.00;;;;;;;;;;4161856;29;20104;-68
2022/04/02 09:44:53;;;;;;;26.70;6.10;;;;;;;;;;4136514;34;20453;-67
2022/04/02 09:47:24;;;;;;;16.00;5.53;;;;;;;;;;4123919;34;20188;-67
2022/04/02 09:49:50;;;;;;;27.13;6.43;;;;;;;;;;4124741;34;20210;-68
2022/04/02 09:52:26;;;;;;;27.75;8.35;;;;;;;;;;4118412;34;20112;-67
2022/04/02 09:55:05;;;;;;;29.00;8.77;;;;;;;;;;4121745;34;20201;-66
2022/04/02 09:58:08;;;;;;;23.48;6.57;;;;;;;;;;4113778;34;20108;-64
2022/04/02 10:00:42;;;;;;;18.60;5.85;;;;;;;;;;4136350;34;20526;-70
2022/04/02 10:03:13;;;;;;;22.35;6.72;;;;;;;;;;4136250;34;20213;-69
2022/04/02 10:05:42;;;;;;;25.62;7.20;;;;;;;;;;4113141;34;20127;-69
2022/04/02 10:08:34;;;;;;;24.35;6.85;;;;;;;;;;4124251;34;20115;-71
2022/04/02 10:11:06;;;;;;;22.70;6.95;;;;;;;;;;4135309;34;20120;-67
2022/04/02 10:13:35;;;;;;;15.23;4.97;;;;;;;;;;4126546;34;20215;-67
2022/04/02 10:16:03;;;;;;;22.90;5.95;;;;;;;;;;4110680;34;20123;-69
2022/04/02 10:18:42;;;;;;;21.17;5.62;;;;;;;;;;4110586;34;20146;-66
2022/04/02 10:21:09;;;;;;;28.62;9.43;;;;;;;;;;4110621;34;20129;-68
2022/04/02 10:23:37;;;;;;;17.00;5.75;;;;;;;;;;4107947;34;20104;-68
2022/04/02 10:26:13;;;;;;;21.98;6.00;;;;;;;;;;4112587;34;20183;-67
2022/04/02 10:28:50;;;;;;;24.58;7.47;;;;;;;;;;4136360;34;20548;-67
2022/04/02 10:31:37;;;;;;;21.25;6.15;;;;;;;;;;4135920;34;20104;-67
2022/04/02 10:34:22;;;;;;;22.42;5.97;;;;;;;;;;4112580;34;20118;-69
2022/04/02 10:37:01;;;;;;;18.23;6.12;;;;;;;;;;4116930;34;20103;-71
2022/04/02 10:40:10;;;;;;;19.25;5.95;;;;;;;;;;4090770;34;20574;-71
2022/04/02 10:43:23;;;;;;;17.80;6.10;;;;;;;;;;4087527;34;20474;-71
2022/04/02 10:45:49;;;;;;;22.00;7.70;;;;;;;;;;4123672;34;20135;-67
2022/04/02 10:48:40;;;;;;;23.30;7.87;;;;;;;;;;4124027;34;20096;-70
2022/04/02 10:51:08;;;;;;;26.00;6.70;;;;;;;;;;4131176;34;20134;-72
2022/04/02 10:53:35;;;;;;;27.35;6.37;;;;;;;;;;4123809;34;20124;-70
2022/04/02 10:56:06;;;;;;;19.45;7.40;;;;;;;;;;4112767;34;20551;-69
2022/04/02 10:58:40;;;;;;;5.62;2.50;;;;;;;;;;4123835;34;20559;-68
2022/04/02 11:01:07;;;;;;;6.95;3.62;;;;;;;;;;4121937;34;20515;-63
2022/04/02 11:03:40;;;;;;;6.65;2.78;;;;;;;;;;4097811;34;20861;-62
2022/04/02 11:06:07;;;;;;;27.62;8.00;;;;;;;;;;4117812;34;20238;-63
2022/04/02 11:08:33;;;;;;;17.45;5.30;;;;;;;;;;4108988;34;20135;-62
2022/04/02 11:11:14;;;;;;;7.90;3.10;;;;;;;;;;4121394;34;20556;-65
2022/04/02 11:13:43;;;;;;;6.50;2.62;;;;;;;;;;4121728;34;20128;-67
2022/04/02 11:16:16;;;;;;;10.13;3.28;;;;;;;;;;4121549;34;20119;-67
2022/04/02 11:19:53;;;;;;;15.13;4.47;;;;;;;;;;4113077;34;20128;-64
2022/04/02 11:21:38;;;;;;;8.65;2.78;;;;;;;;;;4096791;34;20128;-66
2022/04/02 11:24:05;;;;;;;12.50;4.78;;;;;;;;;;4093791;34;20194;-72
2022/04/02 11:26:36;;;;;;;19.35;7.00;;;;;;;;;;4090321;34;20213;-69
2022/04/02 11:29:02;;;;;;;14.55;5.18;;;;;;;;;;4068407;34;20640;-68
2022/04/02 11:31:29;;;;;;;12.90;3.78;;;;;;;;;;4090334;34;20131;-68
2022/04/02 11:33:57;;;;;;;21.62;5.62;;;;;;;;;;4090913;34;20140;-68
2022/04/02 11:36:44;;;;;;;7.80;4.07;;;;;;;;;;4081650;34;20112;-68
2022/04/02 11:39:11;;;;;;;2.40;2.08;;;;;;;;;;4094078;34;20160;-71
2022/04/02 11:41:47;;;;;;;14.07;6.50;;;;;;;;;;4097412;29;20114;-69
2022/04/02 11:44:18;;;;;;;9.95;2.60;;;;;;;;;;4112428;34;20131;-70
2022/04/02 11:47:29;;;;;;;8.85;3.00;;;;;;;;;;4123286;34;20105;-70
2022/04/02 11:50:07;;;;;;;5.40;2.75;;;;;;;;;;4086935;34;20258;-70
2022/04/02 11:52:53;;;;;;;3.28;2.28;;;;;;;;;;4124394;34;20107;-70
2022/04/02 11:55:41;;;;;;;10.00;3.42;;;;;;;;;;4101120;34;20119;-70
2022/04/02 11:58:51;;;;;;;20.58;5.30;;;;;;;;;;4103346;34;20130;-70
2022/04/02 12:01:40;;;;;;;6.37;3.17;;;;;;;;;;4112692;34;20107;-69
2022/04/02 12:04:17;;;;;;;2.85;2.40;;;;;;;;;;4101449;34;20118;-70
2022/04/02 12:06:54;;;;;;;;;;;;;;;;;;4125210;34;20112;-70
2022/04/02 12:09:24;;;;;;;11.70;2.85;;;;;;;;;;4101501;34;20337;-69
2022/04/02 12:11:55;;;;;;;5.40;3.10;;;;;;;;;;4101314;34;20546;-69
2022/04/02 12:14:41;;;;;;;5.53;3.20;;;;;;;;;;4100913;34;20120;-69
2022/04/02 12:17:14;;;;;;;3.58;2.55;;;;;;;;;;4098414;34;20543;-69
2022/04/02 12:20:10;;;;;;;11.20;3.42;;;;;;;;;;4097756;34;20116;-65
2022/04/02 12:22:39;;;;;;;7.15;2.08;;;;;;;;;;4098500;34;20228;-69
2022/04/02 12:25:10;;;;;;;2.72;2.17;;;;;;;;;;4120178;34;20120;-69
2022/04/02 12:27:38;;;;;;;6.22;2.95;;;;;;;;;;4111477;34;20108;-70
2022/04/02 12:30:09;;;;;;;8.68;3.85;;;;;;;;;;4112047;34;20128;-71
2022/04/02 12:32:44;;;;;;;19.55;6.07;;;;;;;;;;4090058;34;20110;-75
2022/04/02 12:35:15;;;;;;;2.60;2.30;;;;;;;;;;4112229;34;20108;-69
2022/04/02 12:37:49;;;;;;;7.95;3.42;;;;;;;;;;4100822;34;20221;-67
2022/04/02 12:41:01;;;;;;;;;;;;;;;;;;;;;
2022/04/02 12:43:57;;;;;;;12.18;3.37;;;;;;;;;;4066097;35;20133;-68
2022/04/02 12:46:25;;;;;;;10.48;4.45;;;;;;;;;;4057443;34;20129;-67
2022/04/02 12:48:51;;;;;;;10.98;5.03;;;;;;;;;;4114924;34;20171;-66
2022/04/02 12:51:19;;;;;;;12.35;4.72;;;;;;;;;;4123513;34;20138;-67
2022/04/02 12:53:47;;;;;;;9.20;3.53;;;;;;;;;;4100751;34;20118;-67
2022/04/02 12:56:23;;;;;;;11.05;4.15;;;;;;;;;;4123644;34;20214;-66
2022/04/02 12:58:53;;;;;;;6.37;3.08;;;;;;;;;;4111572;34;20111;-68
2022/04/02 13:01:25;;;;;;;11.23;3.87;;;;;;;;;;4109618;34;20108;-68
2022/04/02 13:03:57;;;;;;;12.07;4.45;;;;;;;;;;4114188;34;20106;-68
2022/04/02 13:06:24;;;;;;;15.73;4.45;;;;;;;;;;4124194;34;20136;-69
2022/04/02 13:09:01;;;;;;;7.85;4.12;;;;;;;;;;4111503;34;20092;-69
2022/04/02 13:11:55;;;;;;;12.60;4.60;;;;;;;;;;4123970;34;20138;-73
2022/04/02 13:14:25;;;;;;;16.23;3.78;;;;;;;;;;4111841;34;20119;-70
2022/04/02 13:17:15;;;;;;;5.80;2.12;;;;;;;;;;4109868;34;20119;-72
2022/04/02 13:22:53;;;;;;;7.82;3.55;;;;;;;;;;4111867;34;20119;-76
2022/04/02 13:25:26;;;;;;;11.95;3.58;;;;;;;;;;4097094;34;20119;-75
2022/04/02 13:28:49;;;;;;;16.48;6.12;;;;;;;;;;4087365;34;20200;-75
2022/04/02 13:31:18;;;;;;;23.58;7.30;;;;;;;;;;4068949;35;20212;-72
2022/04/02 13:34:13;;;;;;;23.98;8.57;;;;;;;;;;4107267;34;20112;-72
2022/04/02 13:37:07;;;;;;;19.90;6.78;;;;;;;;;;4078728;34;20116;-76
2022/04/02 13:40:25;;;;;;;;;;;;;;;;;;;;;
2022/04/02 13:44:01;;;;;;;25.77;7.68;;;;;;;;;;4085470;35;20833;-74
2022/04/02 13:48:23;;;;;;;23.38;6.30;;;;;;;;;;4083102;35;20127;-74
2022/04/02 14:22:04;;;;;;;19.23;5.95;;;;;;;;;;2618925;29;20131;-73
2022/04/02 14:24:40;;;;;;;13.98;4.93;;;;;;;;;;4099984;34;20522;-73
2022/04/02 14:27:43;;;;;;;20.50;6.57;;;;;;;;;;4110881;34;20127;-73
2022/04/02 14:30:32;;;;;;;12.25;4.43;;;;;;;;;;4105380;34;20194;-73
2022/04/02 14:33:19;;;;;;;18.35;5.53;;;;;;;;;;4099529;34;20500;-71
2022/04/02 14:36:22;;;;;;;8.77;3.53;;;;;;;;;;4107087;34;20152;-64
2022/04/02 14:39:12;;;;;;;11.05;3.75;;;;;;;;;;4115535;34;20124;-69
2022/04/02 14:42:02;;;;;;;25.40;7.00;;;;;;;;;;4110600;34;20124;-68
2022/04/02 14:44:56;;;;;;;19.27;6.25;;;;;;;;;;4110822;34;20191;-67
2022/04/02 14:47:49;;;;;;;17.95;7.82;;;;;;;;;;4110219;34;20544;-66
2022/04/02 14:50:37;;;;;;;16.40;5.47;;;;;;;;;;4117636;34;20105;-67
2022/04/02 14:53:21;;;;;;;22.85;6.70;;;;;;;;;;4109824;34;20542;-67
2022/04/02 14:56:45;;;;;;;19.58;5.40;;;;;;;;;;4097385;34;20096;-68
2022/04/02 14:59:39;;;;;;;17.48;5.50;;;;;;;;;;4078561;34;20120;-69
2022/04/02 15:02:23;;;;;;;20.62;4.95;;;;;;;;;;4109759;34;20119;-70
2022/04/02 15:05:11;;;;;;;20.02;5.60;;;;;;;;;;4086451;34;20104;-68
2022/04/02 15:07:39;;;;;;;14.32;4.80;;;;;;;;;;4109637;34;20626;-66
2022/04/02 15:10:27;;;;;;;16.17;5.75;;;;;;;;;;4109483;34;20525;-69
2022/04/02 15:12:55;;;;;;;14.57;5.93;;;;;;;;;;4096898;34;20112;-68
2022/04/02 15:15:21;;;;;;;20.55;6.57;;;;;;;;;;4101661;34;20186;-69
2022/04/02 15:17:58;;;;;;;15.52;5.12;;;;;;;;;;4098362;34;20115;-65
2022/04/02 15:20:25;;;;;;;19.10;6.87;;;;;;;;;;4121848;34;20147;-68
2022/04/02 15:23:08;;;;;;;15.82;5.78;;;;;;;;;;4109560;34;20504;-71
2022/04/02 15:25:45;;;;;;;14.23;6.47;;;;;;;;;;4108258;34;20120;-68
2022/04/02 15:28:22;;;;;;;13.30;4.72;;;;;;;;;;4118997;34;20104;-67
2022/04/02 15:30:50;;;;;;;17.73;8.73;;;;;;;;;;4110001;34;22045;-68
2022/04/02 15:33:26;;;;;;;15.77;5.85;;;;;;;;;;4109146;34;20195;-67
2022/04/02 15:35:55;;;;;;;23.60;7.05;;;;;;;;;;4109255;34;20108;-67
2022/04/02 15:38:26;;;;;;;17.98;5.60;;;;;;;;;;4120017;34;20113;-66
2022/04/02 15:41:06;;;;;;;19.60;5.85;;;;;;;;;;4117578;34;20143;-67
2022/04/02 15:43:34;;;;;;;16.40;5.90;;;;;;;;;;4105777;34;20633;-68
2022/04/02 15:46:28;;;;;;;8.70;3.92;;;;;;;;;;4104853;34;20556;-66
2022/04/02 15:49:06;;;;;;;21.65;5.82;;;;;;;;;;4107267;34;20267;-67
2022/04/02 15:51:33;;;;;;;12.77;4.57;;;;;;;;;;4120082;34;20517;-67
2022/04/02 15:54:50;;;;;;;9.48;4.28;;;;;;;;;;4121884;34;20115;-65
2022/04/02 16:01:42;;;;;;;14.15;5.20;;;;;;;;;;4027051;30;21744;-65
2022/04/02 16:04:29;;;;;;;16.83;5.70;;;;;;;;;;4015848;35;20209;-66
2022/04/02 16:07:46;;;;;;;18.15;5.85;;;;;;;;;;4028363;35;20134;-67
2022/04/02 16:10:16;;;;;;;15.38;5.40;;;;;;;;;;4038930;35;20557;-67
2022/04/02 16:12:44;;;;;;;15.68;5.47;;;;;;;;;;4056470;35;20093;-65
2022/04/02 16:15:27;;;;;;;20.40;6.90;;;;;;;;;;4066993;35;20202;-66
2022/04/02 16:18:08;;;;;;;23.40;7.65;;;;;;;;;;4067216;35;20284;-66